Time;durP1;ratioP1;P1;durP2;ratioP2;P2;SDS_P1;SDS_P2;PMS_P1;PMS_P2;Temp;Humidity;BMP_temperature;BMP_pressure;BME280_temperature;BME280_humidity;BME280_pressure;Samples;Min_cycle;Max_cycle;Signal;HPM_P1;HPM_P2
2022/06/02 00:01:40;;;;;;;8.52;4.45;;;;;;;15.22;70.59;93650.91;5109989;28;20050;-49
2022/06/02 00:04:19;;;;;;;4.72;3.45;;;;;;;15.22;70.76;93650.91;5110048;28;20102;-47
2022/06/02 00:06:51;;;;;;;8.43;4.50;;;;;;;15.18;71.58;93654.09;5109969;28;20028;-47
2022/06/02 00:09:34;;;;;;;6.93;4.45;;;;;;;15.14;71.91;93653.75;5111112;28;20385;-49
2022/06/02 00:12:08;;;;;;;7.28;4.40;;;;;;;15.03;72.24;93657.03;5110846;28;20032;-47
2022/06/02 00:14:52;;;;;;;6.50;4.25;;;;;;;14.98;72.56;93652.47;5109531;28;20551;-50
2022/06/02 00:17:33;;;;;;;11.48;5.13;;;;;;;14.96;73.21;93643.25;5111017;28;20028;-49
2022/06/02 00:20:15;;;;;;;12.38;6.25;;;;;;;14.98;73.74;93646.91;5110926;28;20028;-48
2022/06/02 00:22:58;;;;;;;6.28;5.20;;;;;;;14.99;73.58;93648.38;5109873;28;20031;-48
2022/06/02 00:25:41;;;;;;;6.70;4.95;;;;;;;15.02;73.67;93646.50;5110926;28;20023;-48
2022/06/02 00:28:21;;;;;;;6.82;5.53;;;;;;;15.03;73.75;93645.19;5109394;28;20039;-48
2022/06/02 00:31:15;;;;;;;6.45;5.50;;;;;;;15.05;72.56;93653.72;5110496;28;20504;-48
2022/06/02 00:33:46;;;;;;;5.50;3.92;;;;;;;14.55;72.87;93644.78;5101246;28;20043;-47
2022/06/02 00:36:20;;;;;;;6.25;4.85;;;;;;;14.52;73.78;93645.91;5110638;28;20066;-48
2022/06/02 00:38:45;;;;;;;4.60;4.00;;;;;;;14.67;73.29;93650.56;5110827;28;20027;-49
2022/06/02 00:41:34;;;;;;;5.03;4.53;;;;;;;14.71;72.76;93654.41;5110492;28;20404;-47
2022/06/02 00:44:07;;;;;;;4.50;3.97;;;;;;;14.78;72.40;93648.06;5109647;28;20031;-47
2022/06/02 00:46:33;;;;;;;5.10;4.13;;;;;;;14.71;71.86;93650.91;5110546;28;20586;-50
2022/06/02 00:49:09;;;;;;;7.78;3.47;;;;;;;14.68;71.80;93647.25;5110729;28;20114;-48
2022/06/02 00:51:54;;;;;;;10.82;3.60;;;;;;;14.81;71.11;93652.44;5110363;28;20029;-48
2022/06/02 00:57:49;;;;;;;5.50;3.72;;;;;;;14.67;71.48;93645.75;5110750;28;20119;-47
2022/06/02 01:00:20;;;;;;;7.22;3.83;;;;;;;14.27;72.61;93648.66;5110557;28;20035;-49
2022/06/02 01:03:18;;;;;;;6.57;4.43;;;;;;;14.27;72.94;93637.56;5111827;28;20031;-50
2022/06/02 01:06:14;;;;;;;4.45;3.92;;;;;;;14.40;72.57;93640.06;5113424;28;20081;-49
2022/06/02 01:08:45;;;;;;;8.15;3.90;;;;;;;14.55;71.93;93644.78;5114296;28;20024;-48
2022/06/02 01:11:31;;;;;;;6.13;4.47;;;;;;;14.59;71.87;93638.78;5114281;28;20030;-46
2022/06/02 01:14:25;;;;;;;4.43;3.78;;;;;;;14.60;71.83;93646.56;5114454;28;20039;-51
2022/06/02 01:17:15;;;;;;;4.63;4.13;;;;;;;14.58;71.97;93643.63;5112985;28;20500;-50
2022/06/02 01:19:58;;;;;;;4.50;4.07;;;;;;;14.47;71.56;93635.75;5114276;28;20039;-49
2022/06/02 01:22:33;;;;;;;5.22;3.83;;;;;;;14.34;71.67;93630.50;5114026;28;20023;-48
2022/06/02 01:25:07;;;;;;;7.13;3.67;;;;;;;14.07;71.78;93632.38;5113826;28;20031;-47
2022/06/02 01:27:35;;;;;;;4.60;3.80;;;;;;;14.05;72.32;93632.22;5113836;27;20065;-48
2022/06/02 01:30:21;;;;;;;6.70;3.90;;;;;;;14.07;72.22;93635.91;5113728;28;20079;-48
2022/06/02 01:33:32;;;;;;;6.60;3.80;;;;;;;14.11;72.55;93632.72;5112808;28;20114;-47
2022/06/02 01:36:16;;;;;;;5.13;4.60;;;;;;;14.16;72.50;93632.47;5053896;28;20032;-50
2022/06/02 01:38:48;;;;;;;5.38;4.05;;;;;;;14.16;72.34;93632.47;5070668;28;20552;-47
2022/06/02 01:41:25;;;;;;;4.57;4.03;;;;;;;14.15;71.73;93633.03;5099442;28;20429;-47
2022/06/02 01:44:08;;;;;;;6.45;4.45;;;;;;;14.11;71.97;93627.16;5112396;28;20440;-46
2022/06/02 01:46:42;;;;;;;10.85;8.15;;;;;;;14.00;72.57;93624.84;5113535;28;20462;-50
2022/06/02 01:49:27;;;;;;;11.25;7.80;;;;;;;13.93;72.85;93626.38;5113700;28;20032;-48
2022/06/02 01:52:31;;;;;;;27.70;8.60;;;;;;;13.98;73.88;93627.44;5113708;28;20036;-47
2022/06/02 01:55:44;;;;;;;25.58;9.40;;;;;;;14.05;73.80;93626.66;5113576;28;20035;-49
2022/06/02 01:58:23;;;;;;;15.60;10.20;;;;;;;14.04;75.05;93625.91;5080823;28;20031;-47
2022/06/02 02:00:56;;;;;;;34.22;8.60;;;;;;;14.01;74.92;93626.31;5113399;28;20054;-50
2022/06/02 02:03:25;;;;;;;29.67;9.10;;;;;;;14.01;75.49;93624.25;5112018;28;20032;-47
2022/06/02 02:06:00;;;;;;;15.07;7.88;;;;;;;14.04;75.70;93622.41;5113159;28;20059;-46
2022/06/02 02:08:44;;;;;;;30.85;9.35;;;;;;;13.71;78.06;93623.75;5113318;28;20042;-47
2022/06/02 02:11:39;;;;;;;12.20;9.60;;;;;;;13.71;77.44;93626.53;5113346;28;20055;-47
2022/06/02 02:14:36;;;;;;;13.32;10.23;;;;;;;13.89;75.60;93616.97;5104670;28;20116;-50
2022/06/02 02:17:32;;;;;;;13.55;10.55;;;;;;;13.92;75.06;93615.84;5112949;28;20077;-49
2022/06/02 02:20:32;;;;;;;16.38;9.43;;;;;;;13.53;74.99;93618.16;5113040;28;20081;-47
2022/06/02 02:23:12;;;;;;;13.15;9.50;;;;;;;13.61;75.29;93620.84;5111915;28;20032;-48
2022/06/02 02:25:59;;;;;;;19.75;9.43;;;;;;;13.62;74.62;93617.50;5112653;28;20038;-47
2022/06/02 02:28:37;;;;;;;13.25;8.38;;;;;;;13.66;74.03;93617.13;5111134;28;20526;-48
2022/06/02 02:31:08;;;;;;;13.18;9.02;;;;;;;13.67;73.82;93622.09;5112571;28;20134;-48
2022/06/02 02:33:42;;;;;;;11.80;7.25;;;;;;;13.55;73.85;93607.22;5111712;28;20102;-49
2022/06/02 02:36:24;;;;;;;10.65;7.80;;;;;;;13.55;74.31;93612.75;5112789;28;20055;-49
2022/06/02 02:39:09;;;;;;;11.55;7.93;;;;;;;13.67;73.89;93615.81;5111590;28;20062;-48
2022/06/02 02:41:42;;;;;;;11.25;8.05;;;;;;;13.57;73.74;93617.75;5112387;28;20051;-48
2022/06/02 02:44:10;;;;;;;10.45;8.30;;;;;;;13.49;74.62;93619.84;5112623;28;20027;-48
2022/06/02 02:46:37;;;;;;;9.77;8.00;;;;;;;13.35;75.23;93613.81;5112313;28;20042;-48
2022/06/02 02:49:17;;;;;;;12.65;8.35;;;;;;;13.30;75.83;93600.88;5111431;28;20031;-47
2022/06/02 02:51:46;;;;;;;10.50;7.72;;;;;;;13.28;76.06;93613.81;5111428;28;20015;-47
2022/06/02 02:54:36;;;;;;;10.73;7.68;;;;;;;13.48;75.04;93613.53;5112221;28;20405;-48
2022/06/02 02:57:16;;;;;;;14.70;7.03;;;;;;;13.48;74.03;93616.31;5112152;28;20507;-47
2022/06/02 03:00:00;;;;;;;12.00;6.28;;;;;;;13.28;73.95;93617.34;5112110;28;20028;-49
2022/06/02 03:02:35;;;;;;;4.57;3.75;;;;;;;13.28;73.23;93620.13;5112039;28;20539;-48
2022/06/02 03:05:27;;;;;;;5.68;4.80;;;;;;;13.15;73.56;93617.59;5111202;28;20438;-47
2022/06/02 03:07:52;;;;;;;6.45;5.15;;;;;;;13.31;73.60;93621.03;5112306;28;20023;-49
2022/06/02 03:10:30;;;;;;;5.97;5.03;;;;;;;13.35;72.67;93624.91;5110645;28;20039;-47
2022/06/02 03:13:05;;;;;;;11.25;5.60;;;;;;;13.38;72.52;93623.03;5110680;28;20031;-47
2022/06/02 03:16:03;;;;;;;5.97;4.95;;;;;;;13.38;72.85;93623.75;5112093;28;20065;-47
2022/06/02 03:18:45;;;;;;;4.88;4.28;;;;;;;13.15;73.73;93612.03;5109371;28;20032;-46
2022/06/02 03:21:22;;;;;;;9.88;5.30;;;;;;;13.17;73.88;93617.75;5110465;28;20385;-50
2022/06/02 03:24:16;;;;;;;9.13;5.57;;;;;;;13.08;74.42;93620.41;5110570;28;20020;-48
2022/06/02 03:27:07;;;;;;;8.98;6.25;;;;;;;12.95;75.02;93619.31;5110378;28;20023;-49
2022/06/02 03:29:33;;;;;;;10.18;5.38;;;;;;;12.89;76.30;93620.81;5111003;28;20122;-51
2022/06/02 03:32:26;;;;;;;9.60;6.43;;;;;;;12.79;76.51;93608.84;5111489;28;20103;-47
2022/06/02 03:35:07;;;;;;;8.52;6.95;;;;;;;12.87;76.68;93626.19;5110689;28;20102;-47
2022/06/02 03:37:54;;;;;;;8.63;7.03;;;;;;;13.25;75.24;93629.56;5110518;28;20023;-48
2022/06/02 03:40:43;;;;;;;8.05;6.53;;;;;;;13.39;74.70;93628.00;5111188;28;20061;-49
2022/06/02 03:43:16;;;;;;;12.13;8.52;;;;;;;13.46;75.25;93634.81;5111259;28;20041;-49
2022/06/02 03:45:50;;;;;;;14.77;9.05;;;;;;;13.42;75.12;93637.25;5110327;28;20039;-50
2022/06/02 03:48:39;;;;;;;11.77;7.20;;;;;;;13.45;75.14;93639.63;5111139;28;20500;-47
2022/06/02 03:51:23;;;;;;;8.93;7.35;;;;;;;13.30;76.21;93636.19;5110015;28;20702;-50
2022/06/02 03:54:24;;;;;;;9.13;7.10;;;;;;;13.31;76.68;93638.41;5111008;28;20063;-50
2022/06/02 03:56:57;;;;;;;12.55;9.55;;;;;;;13.50;75.85;93643.47;5103357;28;20126;-49
2022/06/02 03:59:31;;;;;;;23.90;16.67;;;;;;;13.58;74.98;93644.91;5111271;28;20420;-48
2022/06/02 04:02:08;;;;;;;23.35;15.75;;;;;;;13.64;74.98;93644.72;5109682;28;20030;-47
2022/06/02 04:05:10;;;;;;;19.73;14.30;;;;;;;13.71;74.84;93648.75;5111277;28;20039;-47
2022/06/02 04:08:07;;;;;;;24.10;10.57;;;;;;;13.68;75.50;93645.06;5111113;28;20047;-48
2022/06/02 04:10:52;;;;;;;11.13;7.93;;;;;;;13.68;75.42;93637.47;5111136;28;20016;-49
2022/06/02 04:13:42;;;;;;;10.90;7.32;;;;;;;13.61;76.33;93640.28;5109547;28;20027;-48
2022/06/02 04:16:26;;;;;;;6.63;5.93;;;;;;;13.72;76.71;93642.63;5110777;28;20026;-47
2022/06/02 04:20:34;;;;;;;5.88;5.18;;;;;;;13.64;76.98;93642.66;5111110;28;20133;-51
2022/06/02 04:22:11;;;;;;;6.55;5.85;;;;;;;13.72;77.56;93644.66;5110684;28;20516;-50
2022/06/02 04:24:43;;;;;;;9.75;5.63;;;;;;;13.98;76.93;93646.88;5110232;28;20089;-50
2022/06/02 04:27:16;;;;;;;7.40;6.60;;;;;;;14.14;76.66;93640.63;5109480;28;20133;-51
2022/06/02 04:29:57;;;;;;;10.68;6.88;;;;;;;14.18;76.48;93649.31;5089569;28;20059;-47
2022/06/02 04:32:28;;;;;;;5.70;5.03;;;;;;;14.19;76.70;93647.25;5090272;28;20032;-52
2022/06/02 04:35:32;;;;;;;8.45;5.75;;;;;;;14.35;77.17;93645.88;5090579;28;20036;-48
2022/06/02 04:38:16;;;;;;;7.28;5.38;;;;;;;14.37;77.46;93646.78;5081635;28;20093;-47
2022/06/02 04:40:44;;;;;;;6.47;5.45;;;;;;;14.51;77.26;93643.69;5094279;28;20119;-49
2022/06/02 04:43:27;;;;;;;9.15;4.53;;;;;;;14.74;77.66;93644.94;5094273;28;20039;-48
2022/06/02 04:46:14;;;;;;;9.95;7.90;;;;;;;14.90;76.19;93645.53;5094406;28;20070;-47
2022/06/02 04:49:03;;;;;;;12.43;9.13;;;;;;;14.96;75.70;93643.97;5093304;28;20028;-47
2022/06/02 04:51:37;;;;;;;10.57;8.15;;;;;;;15.15;75.39;93635.03;5094052;28;20062;-49
2022/06/02 04:54:32;;;;;;;9.02;7.68;;;;;;;15.25;75.31;93635.09;5094182;28;20028;-49
2022/06/02 04:57:30;;;;;;;7.45;6.75;;;;;;;15.38;75.66;93640.31;5077730;28;20070;-50
2022/06/02 05:00:19;;;;;;;8.43;7.17;;;;;;;15.49;75.59;93635.00;5094088;28;20045;-47
2022/06/02 05:02:59;;;;;;;11.32;7.80;;;;;;;15.60;75.53;93633.75;5093100;28;20493;-47
2022/06/02 05:05:39;;;;;;;7.65;6.47;;;;;;;15.69;76.04;93630.28;5092757;28;20512;-52
2022/06/02 05:08:42;;;;;;;6.80;6.05;;;;;;;15.92;76.17;93639.78;5092779;28;20027;-46
2022/06/02 05:11:26;;;;;;;11.18;5.85;;;;;;;16.16;75.51;93631.81;5094105;28;20103;-47
2022/06/02 05:14:12;;;;;;;8.55;6.63;;;;;;;16.35;75.54;93624.25;5094087;28;20078;-48
2022/06/02 05:16:43;;;;;;;7.20;5.80;;;;;;;16.45;75.73;93621.50;5093979;28;20047;-48
2022/06/02 05:19:37;;;;;;;7.00;6.30;;;;;;;16.57;76.24;93628.00;5093670;28;20035;-50
2022/06/02 05:22:20;;;;;;;6.88;6.00;;;;;;;16.63;77.02;93628.47;5092826;28;20466;-48
2022/06/02 05:24:58;;;;;;;6.82;6.10;;;;;;;16.70;76.39;93624.06;5092360;28;20035;-49
2022/06/02 05:27:57;;;;;;;12.45;7.32;;;;;;;16.79;77.23;93626.84;5093209;28;20630;-48
2022/06/02 05:30:29;;;;;;;;;;;;;;;16.91;76.11;93633.34;5114208;28;20046;-47
2022/06/02 05:33:13;;;;;;;7.43;6.05;;;;;;;16.93;75.82;93627.91;5113794;28;20424;-49
2022/06/02 05:36:06;;;;;;;9.48;6.60;;;;;;;17.06;76.80;93626.72;5113691;28;20528;-48
2022/06/02 05:38:56;;;;;;;7.85;6.57;;;;;;;17.17;77.04;93631.72;5113983;28;20468;-49
2022/06/02 05:41:50;;;;;;;13.07;6.65;;;;;;;17.29;77.07;93627.00;5113851;28;20124;-48
2022/06/02 05:44:15;;;;;;;10.98;8.35;;;;;;;17.37;78.18;93627.59;5113895;28;20039;-49
2022/06/02 05:46:43;;;;;;;12.80;9.55;;;;;;;17.49;79.06;93630.50;5113889;28;20413;-48
2022/06/02 05:49:30;;;;;;;16.80;9.33;;;;;;;17.65;79.71;93638.00;5112720;28;20615;-52
2022/06/02 05:52:10;;;;;;;8.57;6.78;;;;;;;17.82;79.32;93623.84;5113815;28;20020;-48
2022/06/02 05:55:02;;;;;;;7.93;5.80;;;;;;;17.91;79.15;93627.97;5112213;28;20512;-47
2022/06/02 05:57:38;;;;;;;7.13;5.03;;;;;;;17.96;77.91;93627.63;5113631;28;20039;-47
2022/06/02 06:00:30;;;;;;;10.27;4.88;;;;;;;18.08;78.17;93633.34;5112338;28;20054;-49
2022/06/02 06:03:02;;;;;;;6.13;5.30;;;;;;;18.16;77.46;93631.84;5105571;28;20653;-49
2022/06/02 06:05:33;;;;;;;5.55;4.75;;;;;;;18.28;75.71;93628.41;5113149;28;20030;-48
2022/06/02 06:08:01;;;;;;;7.10;4.50;;;;;;;18.41;74.22;93625.13;5113408;28;20023;-49
2022/06/02 06:10:30;;;;;;;4.90;4.45;;;;;;;18.53;74.26;93637.13;5113065;28;20106;-49
2022/06/02 06:13:21;;;;;;;4.97;4.47;;;;;;;18.54;73.44;93630.94;5113340;28;20055;-47
2022/06/02 06:15:55;;;;;;;6.43;4.90;;;;;;;18.65;73.35;93619.09;5107055;28;20036;-48
2022/06/02 06:18:30;;;;;;;5.43;4.47;;;;;;;18.82;73.46;93620.91;5111991;28;20412;-46
2022/06/02 06:21:18;;;;;;;6.10;4.60;;;;;;;19.03;72.00;93623.72;5112890;28;20020;-49
2022/06/02 06:24:21;;;;;;;7.20;4.63;;;;;;;19.13;71.25;93624.38;5112071;28;20024;-48
2022/06/02 06:26:59;;;;;;;6.30;4.28;;;;;;;19.29;70.76;93617.03;5112807;28;20408;-48
2022/06/02 06:29:43;;;;;;;4.82;4.30;;;;;;;19.49;70.27;93618.34;5111293;28;20050;-50
2022/06/02 06:32:11;;;;;;;13.65;3.97;;;;;;;19.71;69.52;93616.22;5112901;28;20051;-48
2022/06/02 06:34:39;;;;;;;6.85;3.90;;;;;;;20.29;64.69;93610.72;5112619;28;20046;-47
2022/06/02 06:37:23;;;;;;;5.67;4.10;;;;;;;20.78;63.51;93603.13;5112915;28;20038;-47
2022/06/02 06:39:51;;;;;;;4.75;3.65;;;;;;;21.46;61.31;93614.81;5112767;28;20044;-47
2022/06/02 06:42:46;;;;;;;4.07;3.50;;;;;;;22.22;59.43;93604.97;5112490;28;20156;-49
2022/06/02 06:45:24;;;;;;;4.03;3.63;;;;;;;22.73;57.33;93602.78;5112383;28;20024;-48
2022/06/02 06:47:59;;;;;;;4.85;3.55;;;;;;;22.92;56.22;93607.97;5111551;28;20024;-48
2022/06/02 06:50:49;;;;;;;4.60;4.00;;;;;;;22.97;56.29;93604.00;5111446;28;20459;-48
2022/06/02 06:53:30;;;;;;;5.38;4.22;;;;;;;22.79;56.25;93605.16;5112325;28;20419;-51
2022/06/02 06:56:13;;;;;;;5.10;4.18;;;;;;;22.43;57.92;93589.91;5111362;28;20031;-48
2022/06/02 06:59:03;;;;;;;12.18;4.18;;;;;;;22.71;58.38;93613.19;5111784;28;20702;-48
2022/06/02 07:01:38;;;;;;;8.65;4.00;;;;;;;23.06;57.76;93599.50;5110422;28;20072;-47
2022/06/02 07:04:18;;;;;;;6.10;4.05;;;;;;;23.55;57.43;93603.38;5112079;28;20063;-47
2022/06/02 07:07:10;;;;;;;4.63;3.78;;;;;;;23.95;56.14;93604.59;5111958;28;20020;-48
2022/06/02 07:09:59;;;;;;;5.00;3.35;;;;;;;24.52;55.60;93607.91;5090077;28;20035;-49
2022/06/02 07:12:55;;;;;;;5.82;3.15;;;;;;;25.34;51.52;93602.31;5111863;28;20516;-49
2022/06/02 07:15:37;;;;;;;5.00;3.05;;;;;;;26.14;50.42;93605.63;5112030;28;20431;-48
2022/06/02 07:18:20;;;;;;;3.88;3.47;;;;;;;26.74;48.29;93607.22;5112066;28;20080;-46
2022/06/02 07:20:55;;;;;;;4.60;2.85;;;;;;;27.61;47.16;93611.00;5111915;28;20027;-48
2022/06/02 07:23:33;;;;;;;5.70;2.80;;;;;;;28.64;43.75;93613.56;5090730;28;20027;-48
2022/06/02 07:26:30;;;;;;;4.45;2.53;;;;;;;30.42;39.79;93614.03;5090050;28;20077;-49
2022/06/02 07:29:17;;;;;;;2.67;2.47;;;;;;;32.31;36.88;93622.72;5103665;28;20031;-49
2022/06/02 07:32:17;;;;;;;4.88;2.40;;;;;;;33.98;33.37;93622.69;5111788;28;20055;-48
2022/06/02 07:34:53;;;;;;;4.30;2.00;;;;;;;34.97;31.58;93624.22;5088906;28;20469;-49
2022/06/02 07:37:30;;;;;;;3.83;2.17;;;;;;;36.41;29.53;93617.44;5110135;28;20102;-48
2022/06/02 07:39:59;;;;;;;6.95;2.30;;;;;;;37.40;27.20;93625.94;5111643;28;20023;-48
2022/06/02 07:42:43;;;;;;;;;;;;;;;38.23;26.76;93631.94;5112136;28;20038;-47
2022/06/02 07:45:26;;;;;;;8.50;2.88;;;;;;;39.15;24.78;93626.88;5111544;28;20380;-49
2022/06/02 07:48:00;;;;;;;4.28;2.10;;;;;;;39.59;24.12;93631.44;5111547;28;20024;-52
2022/06/02 07:50:31;;;;;;;5.35;2.20;;;;;;;40.11;23.18;93636.53;5110270;28;20420;-51
2022/06/02 07:53:19;;;;;;;3.92;1.80;;;;;;;40.49;22.82;93633.06;5111433;28;20047;-48
2022/06/02 07:56:22;;;;;;;3.17;1.90;;;;;;;40.71;21.69;93629.81;5110230;28;20016;-48
2022/06/02 07:58:47;;;;;;;2.08;1.80;;;;;;;41.20;21.30;93629.66;5078204;28;20027;-52
2022/06/02 08:01:19;;;;;;;2.22;1.60;;;;;;;41.52;20.19;93629.03;5110860;27;20118;-48
2022/06/02 08:03:57;;;;;;;2.85;1.70;;;;;;;41.60;19.83;93628.19;5110982;28;20040;-51
2022/06/02 08:06:25;;;;;;;3.38;1.67;;;;;;;41.51;20.73;93627.63;5111238;28;20020;-48
2022/06/02 08:09:14;;;;;;;6.38;2.13;;;;;;;41.80;19.71;93627.06;5110809;28;20496;-48
2022/06/02 08:11:55;;;;;;;11.63;2.45;;;;;;;42.14;19.59;93629.22;5110739;28;20072;-47
2022/06/02 08:14:45;;;;;;;4.90;4.40;;;;;;;42.01;20.17;93628.03;5111000;28;20015;-48
2022/06/02 08:17:23;;;;;;;3.05;2.05;;;;;;;41.73;20.80;93632.28;5111079;28;20057;-49
2022/06/02 08:20:10;;;;;;;2.65;1.70;;;;;;;41.06;19.97;93632.84;5109218;28;20102;-47
2022/06/02 08:22:47;;;;;;;4.00;1.70;;;;;;;41.26;20.24;93628.88;5111083;28;20092;-47
2022/06/02 08:25:21;;;;;;;3.95;2.53;;;;;;;41.77;19.55;93622.78;5110698;28;20076;-47
2022/06/02 08:28:21;;;;;;;4.82;2.33;;;;;;;42.48;19.56;93630.63;5110548;28;20081;-46
2022/06/02 08:30:56;;;;;;;6.25;2.38;;;;;;;42.00;18.23;93620.81;5110564;28;20118;-48
2022/06/02 08:33:53;;;;;;;2.38;1.77;;;;;;;42.72;18.54;93630.75;5109723;28;20055;-47
2022/06/02 08:36:29;;;;;;;2.92;1.70;;;;;;;42.67;18.38;93626.53;5109724;28;20034;-47
2022/06/02 08:39:07;;;;;;;3.03;2.03;;;;;;;43.24;18.53;93625.06;5109702;28;20411;-48
2022/06/02 08:42:33;;;;;;;8.80;1.95;;;;;;;43.29;19.13;93627.13;5109594;28;20107;-49
2022/06/02 08:45:39;;;;;;;2.72;1.67;;;;;;;43.64;18.36;93621.06;5067481;28;20033;-47
2022/06/02 08:48:19;;;;;;;1.30;1.20;;;;;;;43.03;17.54;93622.00;5104352;28;20027;-47
2022/06/02 08:51:19;;;;;;;3.47;1.67;;;;;;;43.25;19.00;93632.31;5110463;28;20020;-47
2022/06/02 08:54:09;;;;;;;3.97;1.50;;;;;;;43.32;16.56;93628.50;5110441;28;20106;-46
2022/06/02 08:56:51;;;;;;;2.17;1.60;;;;;;;43.20;16.74;93625.91;5110721;28;20035;-47
2022/06/02 08:59:48;;;;;;;2.45;1.48;;;;;;;43.43;17.10;93628.94;5109523;28;20030;-48
2022/06/02 09:02:47;;;;;;;2.35;1.40;;;;;;;43.03;15.94;93630.72;5110729;28;20030;-47
2022/06/02 09:05:34;;;;;;;3.30;1.83;;;;;;;43.07;17.27;93632.81;5087412;28;20032;-47
2022/06/02 09:08:18;;;;;;;4.13;1.83;;;;;;;42.82;16.75;93633.41;5110278;28;20027;-51
2022/06/02 09:11:01;;;;;;;1.63;1.52;;;;;;;43.43;16.08;93626.72;5110323;28;20024;-47
2022/06/02 09:14:00;;;;;;;1.70;1.60;;;;;;;43.99;17.23;93641.16;5110529;28;20428;-47
2022/06/02 09:16:44;;;;;;;2.83;1.40;;;;;;;43.00;16.49;93640.97;5110549;28;20081;-49
2022/06/02 09:19:33;;;;;;;3.42;1.70;;;;;;;41.80;18.10;93635.75;5110038;28;20111;-47
2022/06/02 09:22:12;;;;;;;2.92;1.38;;;;;;;40.44;18.78;93637.47;5109378;28;20042;-48
2022/06/02 09:24:49;;;;;;;2.75;1.90;;;;;;;38.53;20.08;93636.81;5113823;28;20579;-47
2022/06/02 09:27:36;;;;;;;5.65;1.80;;;;;;;38.15;22.23;93637.06;5114277;28;20107;-47
2022/06/02 09:30:28;;;;;;;3.50;2.15;;;;;;;37.11;22.82;93636.09;5093503;28;20043;-49
2022/06/02 09:33:34;;;;;;;3.20;2.17;;;;;;;36.08;24.34;93639.00;5093733;28;20036;-48
2022/06/02 09:36:19;;;;;;;4.47;1.58;;;;;;;35.13;23.70;93640.78;5093748;28;20031;-48
2022/06/02 09:39:03;;;;;;;4.00;2.30;;;;;;;34.57;25.10;93631.81;5093384;28;20031;-49
2022/06/02 09:41:47;;;;;;;2.90;1.50;;;;;;;35.87;22.66;93637.50;5093223;28;20027;-48
2022/06/02 09:44:50;;;;;;;4.30;1.80;;;;;;;37.53;21.38;93626.59;5093458;28;20035;-47
2022/06/02 09:48:01;;;;;;;3.35;2.00;;;;;;;38.46;21.22;93633.25;5077942;28;20040;-48
2022/06/02 09:50:47;;;;;;;4.38;2.22;;;;;;;39.06;20.90;93629.09;5076790;28;20578;-46
2022/06/02 09:53:31;;;;;;;2.45;1.75;;;;;;;39.78;20.41;93633.34;5093374;28;20027;-47
2022/06/02 09:56:33;;;;;;;3.03;1.90;;;;;;;40.43;19.79;93626.66;5093085;28;20041;-47
2022/06/02 09:59:20;;;;;;;4.53;1.52;;;;;;;41.31;17.78;93625.13;5093053;28;20024;-47
2022/06/02 10:02:35;;;;;;;3.67;2.00;;;;;;;41.55;17.31;93618.13;5092950;28;20024;-47
2022/06/02 10:05:22;;;;;;;4.30;1.48;;;;;;;41.81;18.35;93625.56;5050083;28;20454;-48
2022/06/02 10:08:29;;;;;;;2.60;1.55;;;;;;;42.57;17.70;93623.16;5087668;28;20032;-49
2022/06/02 10:11:04;;;;;;;3.22;1.65;;;;;;;42.73;15.26;93617.66;5091594;28;20497;-47
2022/06/02 10:13:48;;;;;;;1.50;1.30;;;;;;;42.70;15.65;93621.38;5091478;28;20035;-45
2022/06/02 10:16:50;;;;;;;4.70;1.70;;;;;;;42.57;17.59;93620.97;5092625;28;20058;-47
2022/06/02 10:19:40;;;;;;;4.35;1.63;;;;;;;42.52;15.08;93622.53;5092602;28;20532;-46
2022/06/02 10:22:05;;;;;;;6.15;1.55;;;;;;;43.11;15.66;93621.78;5092810;28;20039;-49
2022/06/02 10:24:49;;;;;;;7.00;6.03;;;;;;;42.31;18.57;93617.94;5092716;28;20428;-47
2022/06/02 10:27:39;;;;;;;4.18;2.80;;;;;;;42.25;18.33;93618.81;5092363;28;20489;-48
2022/06/02 10:30:30;;;;;;;25.85;23.08;;;;;;;42.20;17.59;93611.66;5092390;28;20117;-45
2022/06/02 10:33:13;;;;;;;3.33;1.85;;;;;;;42.07;16.96;93613.44;5092340;28;20047;-47
2022/06/02 10:35:51;;;;;;;5.78;3.58;;;;;;;41.86;17.94;93615.31;5092187;28;20577;-50
2022/06/02 10:38:45;;;;;;;;;;;;;;;41.56;19.45;93599.97;5093099;28;20419;-48
2022/06/02 10:41:39;;;;;;;4.55;1.80;;;;;;;41.17;19.59;93613.06;5087355;28;20384;-47
2022/06/02 10:44:13;;;;;;;3.63;1.73;;;;;;;41.47;18.78;93613.22;5092346;28;20441;-48
2022/06/02 10:46:59;;;;;;;4.28;1.70;;;;;;;41.70;18.35;93607.69;5092016;28;20035;-46
2022/06/02 10:49:38;;;;;;;3.80;1.75;;;;;;;41.58;18.41;93608.63;5092243;28;20028;-47
2022/06/02 10:52:34;;;;;;;2.53;2.13;;;;;;;40.93;18.20;93607.72;5091903;28;20031;-47
2022/06/02 10:55:26;;;;;;;3.85;1.83;;;;;;;39.57;19.73;93611.22;5091914;28;20440;-47
2022/06/02 10:58:23;;;;;;;2.95;1.65;;;;;;;39.25;19.50;93607.25;5090651;28;20032;-47
2022/06/02 11:01:18;;;;;;;9.48;1.92;;;;;;;38.76;19.87;93606.31;5091738;28;20470;-49
2022/06/02 11:04:20;;;;;;;3.35;1.42;;;;;;;38.06;20.55;93607.56;5082830;28;20064;-47
2022/06/02 11:07:11;;;;;;;7.32;1.77;;;;;;;37.40;22.48;93599.28;5091979;28;20028;-46
2022/06/02 11:09:57;;;;;;;18.27;3.00;;;;;;;37.19;22.89;93595.72;5091585;28;20716;-47
2022/06/02 11:12:31;;;;;;;4.45;1.80;;;;;;;36.66;22.95;93598.03;5091825;28;20534;-50
2022/06/02 11:15:15;;;;;;;1.73;1.60;;;;;;;36.57;24.45;93598.75;5091791;28;20032;-48
2022/06/02 11:18:05;;;;;;;6.50;1.70;;;;;;;36.95;23.47;93590.09;5091693;28;20055;-47
2022/06/02 11:20:58;;;;;;;10.18;2.10;;;;;;;36.08;21.40;93593.00;5091206;28;20028;-46
2022/06/02 11:23:54;;;;;;;7.40;1.83;;;;;;;35.52;24.46;93593.59;5090152;28;20043;-46
2022/06/02 11:26:44;;;;;;;3.67;1.70;;;;;;;35.26;23.61;93599.22;5091512;28;20459;-47
2022/06/02 11:29:28;;;;;;;7.70;4.80;;;;;;;35.25;22.26;93597.06;5105717;28;20083;-48
2022/06/02 11:31:57;;;;;;;6.53;4.97;;;;;;;35.09;20.08;93594.84;5111807;28;20411;-47
2022/06/02 11:34:22;;;;;;;;;;;;;;;34.57;20.34;93603.88;5112299;28;20035;-47
2022/06/02 11:37:17;;;;;;;6.57;2.30;;;;;;;34.31;23.18;93597.94;5111464;28;19907;-46
2022/06/02 11:39:49;;;;;;;5.95;5.13;;;;;;;34.07;22.67;93587.00;5110357;28;20087;-48
2022/06/02 11:42:37;;;;;;;8.50;7.72;;;;;;;33.72;23.19;93587.38;5111652;28;20031;-47
2022/06/02 11:45:05;;;;;;;20.42;18.48;;;;;;;33.45;23.74;93578.50;5109708;28;20032;-48
2022/06/02 11:48:12;;;;;;;8.65;3.78;;;;;;;32.94;25.42;93573.59;5110983;28;20721;-47
2022/06/02 11:50:53;;;;;;;2.85;2.20;;;;;;;32.68;28.80;93576.13;5111159;28;20511;-46
2022/06/02 11:53:57;;;;;;;13.18;2.58;;;;;;;32.80;25.93;93579.13;5110253;28;20053;-47
2022/06/02 11:57:06;;;;;;;5.57;3.17;;;;;;;32.44;24.96;93570.03;5111330;28;20039;-47
2022/06/02 11:59:47;;;;;;;4.90;3.67;;;;;;;32.42;24.07;93570.00;5067918;28;20494;-48
2022/06/02 12:02:26;;;;;;;2.35;2.13;;;;;;;32.26;27.46;93575.47;5067906;28;20470;-48
2022/06/02 12:05:12;;;;;;;5.97;2.05;;;;;;;32.20;25.07;93561.84;5098033;28;20043;-46
2022/06/02 12:07:43;;;;;;;6.35;5.68;;;;;;;32.09;24.36;93577.38;5109806;28;20038;-48
2022/06/02 12:10:42;;;;;;;4.93;2.90;;;;;;;32.06;22.75;93568.06;5110865;28;20024;-47
2022/06/02 12:13:29;;;;;;;8.35;3.00;;;;;;;31.90;24.16;93567.06;5111232;28;20024;-47
2022/06/02 12:16:18;;;;;;;6.40;2.60;;;;;;;31.77;25.75;93571.81;5111139;28;20031;-46
2022/06/02 12:18:47;;;;;;;3.92;1.83;;;;;;;31.65;26.39;93568.03;5110889;28;20027;-45
2022/06/02 12:21:31;;;;;;;6.10;3.97;;;;;;;31.48;25.23;93567.06;5110754;28;20499;-48
2022/06/02 12:24:08;;;;;;;8.50;6.18;;;;;;;31.10;25.84;93572.72;5110814;28;20032;-47
2022/06/02 12:26:49;;;;;;;15.73;14.45;;;;;;;30.98;25.25;93568.91;5110958;28;20404;-49
2022/06/02 12:29:55;;;;;;;5.13;3.80;;;;;;;30.88;26.49;93563.03;5110158;28;20056;-47
2022/06/02 12:32:36;;;;;;;10.68;2.50;;;;;;;31.02;26.00;93558.31;5067600;28;20029;-49
2022/06/02 12:35:11;;;;;;;9.45;2.42;;;;;;;31.14;26.71;93552.13;5067725;28;20024;-47
2022/06/02 12:38:14;;;;;;;4.50;2.92;;;;;;;31.14;27.04;93561.41;5095353;28;20104;-46
2022/06/02 12:41:15;;;;;;;4.07;1.80;;;;;;;31.02;25.66;93554.72;5110738;28;20092;-52
2022/06/02 12:43:52;;;;;;;5.22;2.55;;;;;;;31.11;27.51;93559.19;5090480;28;20046;-48
2022/06/02 12:46:53;;;;;;;8.80;4.28;;;;;;;31.00;26.38;93543.28;5110839;28;20068;-48
2022/06/02 12:49:35;;;;;;;5.32;2.35;;;;;;;30.94;27.06;93557.44;5110011;28;20078;-47
2022/06/02 12:52:36;;;;;;;3.60;1.92;;;;;;;30.98;30.47;93548.97;5110726;28;20051;-46
2022/06/02 12:55:07;;;;;;;4.05;2.30;;;;;;;30.93;28.95;93547.44;5109550;28;20019;-47